Time;durP1;ratioP1;P1;durP2;ratioP2;P2;SDS_P1;SDS_P2;PMS_P1;PMS_P2;Temp;Humidity;BMP_temperature;BMP_pressure;BME280_temperature;BME280_humidity;BME280_pressure;Samples;Min_cycle;Max_cycle;Signal;HPM_P1;HPM_P2
2022/10/31 00:02:26;;;;;;;18.60;15.00;;;;;;;13.21;100.00;101336.56;4959609;28;20227;-53
2022/10/31 00:04:52;;;;;;;17.70;15.77;;;;;;;13.21;100.00;101330.41;4957190;28;20235;-53
2022/10/31 00:07:19;;;;;;;20.45;14.57;;;;;;;13.18;100.00;101339.22;4955039;28;20293;-54
2022/10/31 00:09:45;;;;;;;15.20;13.45;;;;;;;13.22;100.00;101338.31;4966436;28;20317;-54
2022/10/31 00:12:12;;;;;;;17.75;15.38;;;;;;;13.20;100.00;101348.00;4963945;28;20920;-55
2022/10/31 00:14:40;;;;;;;17.98;14.50;;;;;;;13.21;100.00;101347.13;4965116;28;20587;-54
2022/10/31 00:17:06;;;;;;;18.65;13.15;;;;;;;13.24;100.00;101344.50;4965864;28;20242;-54
2022/10/31 00:19:33;;;;;;;19.75;14.23;;;;;;;13.25;100.00;101353.28;4957858;28;20714;-54
2022/10/31 00:21:59;;;;;;;22.23;16.73;;;;;;;13.24;100.00;101349.78;4979098;28;20277;-53
2022/10/31 00:24:26;;;;;;;23.30;17.20;;;;;;;13.19;100.00;101348.00;4962453;28;20262;-53
2022/10/31 00:26:52;;;;;;;19.73;16.02;;;;;;;13.12;100.00;101360.31;4958881;28;20232;-53
2022/10/31 00:29:19;;;;;;;18.50;15.63;;;;;;;13.12;100.00;101352.41;4962996;28;20234;-52
2022/10/31 00:31:46;;;;;;;18.50;14.32;;;;;;;13.12;100.00;101357.66;4960869;28;20267;-54
2022/10/31 00:34:13;;;;;;;18.10;14.52;;;;;;;13.08;100.00;101354.16;4960971;28;20644;-53
2022/10/31 00:36:39;;;;;;;15.65;13.55;;;;;;;13.10;100.00;101355.03;4964207;28;20238;-54
2022/10/31 00:39:06;;;;;;;18.52;13.95;;;;;;;13.12;100.00;101357.66;4957845;28;20293;-54
2022/10/31 00:41:32;;;;;;;21.67;14.35;;;;;;;13.10;100.00;101359.44;4963447;28;20472;-53
2022/10/31 00:43:59;;;;;;;17.70;12.98;;;;;;;13.09;100.00;101365.56;4962389;28;20230;-53
2022/10/31 00:46:25;;;;;;;17.75;13.15;;;;;;;13.09;100.00;101357.66;4959832;28;20234;-53
2022/10/31 00:48:53;;;;;;;20.10;13.70;;;;;;;13.06;100.00;101363.84;4963871;28;20265;-53
2022/10/31 00:51:20;;;;;;;16.88;13.18;;;;;;;13.04;100.00;101362.09;4957063;28;20226;-53
2022/10/31 00:53:46;;;;;;;18.17;13.15;;;;;;;13.03;100.00;101368.25;4964277;28;20239;-54
2022/10/31 00:56:13;;;;;;;17.83;12.45;;;;;;;13.05;100.00;101374.38;4961393;28;20241;-54
2022/10/31 00:58:39;;;;;;;16.70;12.95;;;;;;;13.04;100.00;101381.41;4959207;28;20235;-55
2022/10/31 01:01:06;;;;;;;26.35;13.82;;;;;;;13.07;100.00;101378.78;4958709;28;20238;-54
2022/10/31 01:03:34;;;;;;;16.30;13.18;;;;;;;13.08;100.00;101377.88;4963719;28;20614;-54
2022/10/31 01:06:03;;;;;;;15.95;12.77;;;;;;;13.07;100.00;101378.78;4967215;28;20594;-53
2022/10/31 01:08:30;;;;;;;16.23;11.90;;;;;;;13.10;100.00;101383.16;4965769;28;20243;-55
2022/10/31 01:11:07;;;;;;;23.05;12.48;;;;;;;13.12;100.00;101378.75;4964885;28;20263;-54
2022/10/31 01:13:34;;;;;;;17.27;12.50;;;;;;;13.13;100.00;101377.91;4961114;28;20418;-55
2022/10/31 01:16:01;;;;;;;23.90;14.82;;;;;;;13.12;100.00;101381.41;4966703;28;20231;-52
2022/10/31 01:18:29;;;;;;;15.88;12.55;;;;;;;13.11;100.00;101379.66;4964653;28;20664;-53
2022/10/31 01:21:05;;;;;;;16.00;12.00;;;;;;;13.11;100.00;101384.91;4968419;28;20235;-54
2022/10/31 01:23:32;;;;;;;15.68;11.65;;;;;;;13.11;100.00;101384.91;4963855;28;20230;-54
2022/10/31 01:26:03;;;;;;;16.40;12.57;;;;;;;13.09;100.00;101377.03;4964520;28;20246;-53
2022/10/31 01:28:30;;;;;;;13.48;11.48;;;;;;;13.09;100.00;101381.41;4962317;28;20246;-53
2022/10/31 01:31:01;;;;;;;19.52;12.10;;;;;;;13.08;100.00;101380.53;4965029;28;20249;-54
2022/10/31 01:33:28;;;;;;;15.32;12.00;;;;;;;13.07;100.00;101377.91;4967492;28;20313;-53
2022/10/31 01:35:55;;;;;;;19.30;11.32;;;;;;;13.10;100.00;101378.78;4964943;28;20329;-54
2022/10/31 01:38:23;;;;;;;18.58;11.40;;;;;;;13.08;100.00;101384.91;4963492;28;22294;-54
2022/10/31 01:40:50;;;;;;;16.98;13.27;;;;;;;13.06;100.00;101384.06;4956403;28;20223;-54
2022/10/31 01:43:20;;;;;;;15.10;13.38;;;;;;;13.02;100.00;101390.19;4966687;28;20716;-53
2022/10/31 01:45:50;;;;;;;21.17;13.20;;;;;;;12.95;100.00;101383.16;4956459;28;20729;-54
2022/10/31 01:48:21;;;;;;;17.23;14.15;;;;;;;12.90;100.00;101380.53;4964747;28;20254;-55
2022/10/31 01:50:49;;;;;;;13.73;12.35;;;;;;;12.86;100.00;101384.94;4966225;28;20227;-54
2022/10/31 01:53:17;;;;;;;18.98;13.93;;;;;;;12.87;100.00;101394.59;4966113;28;20242;-53
2022/10/31 01:55:46;;;;;;;20.60;14.98;;;;;;;12.80;100.00;101390.19;4961451;28;20358;-53
2022/10/31 01:58:14;;;;;;;22.45;16.33;;;;;;;12.76;100.00;101404.25;4963386;28;20253;-53
2022/10/31 02:00:44;;;;;;;20.08;15.35;;;;;;;12.71;100.00;101390.22;4964269;28;20612;-54
2022/10/31 02:03:11;;;;;;;19.05;14.65;;;;;;;12.65;100.00;101391.06;4958391;28;20254;-53
2022/10/31 02:05:38;;;;;;;20.23;14.20;;;;;;;12.63;100.00;101395.44;4966222;28;20251;-53
2022/10/31 02:08:08;;;;;;;16.42;14.70;;;;;;;12.58;100.00;101388.44;4955111;28;20902;-54
2022/10/31 02:10:35;;;;;;;17.77;13.70;;;;;;;12.50;100.00;101403.34;4957913;28;20679;-54
2022/10/31 02:13:06;;;;;;;19.98;15.65;;;;;;;12.52;100.00;101393.69;4963459;28;20293;-53
2022/10/31 02:15:34;;;;;;;17.83;14.85;;;;;;;12.51;100.00;101400.72;4953504;28;20231;-53
2022/10/31 02:18:01;;;;;;;18.20;15.95;;;;;;;12.52;100.00;101394.56;4964780;28;20253;-54
2022/10/31 02:20:31;;;;;;;18.13;14.38;;;;;;;12.48;100.00;101397.19;4967290;28;20614;-54
2022/10/31 02:23:32;;;;;;;24.70;15.90;;;;;;;12.47;100.00;101398.94;4960903;28;20322;-53
2022/10/31 02:26:35;;;;;;;16.83;12.57;;;;;;;12.46;100.00;101393.66;4950413;28;20313;-53
2022/10/31 02:29:13;;;;;;;18.88;13.23;;;;;;;12.49;100.00;101398.94;4962691;28;20239;-53
2022/10/31 02:31:45;;;;;;;17.60;12.77;;;;;;;12.51;100.00;101386.66;4975119;28;20237;-53
2022/10/31 02:34:19;;;;;;;19.08;13.45;;;;;;;12.48;100.00;101379.63;4961879;28;20314;-53
2022/10/31 02:36:53;;;;;;;16.10;14.32;;;;;;;12.47;100.00;101395.44;4951981;28;20231;-54
2022/10/31 02:39:24;;;;;;;17.60;13.48;;;;;;;12.44;100.00;101400.69;4966527;28;20325;-54
2022/10/31 02:41:57;;;;;;;20.48;13.85;;;;;;;12.43;100.00;101399.81;4961076;28;20238;-54
2022/10/31 02:44:30;;;;;;;13.27;11.90;;;;;;;12.43;100.00;101401.59;4963983;28;20911;-52
2022/10/31 02:47:00;;;;;;;17.65;13.30;;;;;;;12.41;100.00;101402.44;4962073;28;20297;-54
2022/10/31 02:49:30;;;;;;;14.43;12.95;;;;;;;12.37;100.00;101403.31;4957549;28;20663;-53
2022/10/31 02:51:57;;;;;;;17.75;13.43;;;;;;;12.33;100.00;101406.81;4961328;28;20241;-55
2022/10/31 02:54:25;;;;;;;18.80;13.50;;;;;;;12.31;100.00;101405.03;4964260;28;20243;-54
2022/10/31 02:56:55;;;;;;;15.85;12.98;;;;;;;12.29;100.00;101412.97;4961005;28;20227;-53
2022/10/31 02:59:22;;;;;;;19.70;13.27;;;;;;;12.29;100.00;101412.97;4963444;28;20250;-54
2022/10/31 03:02:09;;;;;;;13.43;11.98;;;;;;;12.29;100.00;101423.50;4965695;28;20664;-53
2022/10/31 03:04:48;;;;;;;15.82;13.75;;;;;;;12.27;100.00;101419.09;4949931;28;20241;-54
2022/10/31 03:07:21;;;;;;;17.77;12.93;;;;;;;12.18;100.00;101420.81;4955571;28;20247;-53
2022/10/31 03:09:54;;;;;;;14.25;11.68;;;;;;;12.18;100.00;101415.56;4965050;28;20240;-53
2022/10/31 03:12:27;;;;;;;14.63;11.68;;;;;;;12.21;100.00;101419.94;4961378;28;20262;-54
2022/10/31 03:14:57;;;;;;;16.10;13.80;;;;;;;12.22;100.00;101426.97;4964933;28;20242;-55
2022/10/31 03:17:31;;;;;;;14.30;11.43;;;;;;;12.27;100.00;101430.50;4958793;28;20238;-53
2022/10/31 03:19:59;;;;;;;17.50;11.93;;;;;;;12.30;100.00;101422.59;4955066;28;20239;-53
2022/10/31 03:22:28;;;;;;;15.27;11.73;;;;;;;12.33;100.00;101429.66;4961613;28;20735;-53
2022/10/31 03:24:56;;;;;;;14.32;10.63;;;;;;;12.36;100.00;101427.91;4960581;28;20721;-53
2022/10/31 03:27:25;;;;;;;13.98;10.98;;;;;;;12.38;100.00;101428.75;4956511;28;20329;-53
2022/10/31 03:29:53;;;;;;;13.88;10.15;;;;;;;12.40;100.00;101437.56;4960843;28;20247;-53
2022/10/31 03:32:23;;;;;;;14.45;10.27;;;;;;;12.41;100.00;101436.69;4948507;28;20258;-55
2022/10/31 03:34:52;;;;;;;12.48;9.32;;;;;;;12.44;100.00;101448.09;4959082;28;20238;-53
2022/10/31 03:37:20;;;;;;;11.40;10.30;;;;;;;12.46;100.00;101455.16;4958313;28;20240;-55
2022/10/31 03:39:48;;;;;;;15.93;10.75;;;;;;;12.47;100.00;101453.38;4954206;28;20270;-53
2022/10/31 03:42:16;;;;;;;16.45;11.73;;;;;;;12.48;100.00;101455.13;4962505;28;20234;-53
2022/10/31 03:44:46;;;;;;;16.73;10.65;;;;;;;12.47;100.00;101458.66;4961947;28;20235;-53
2022/10/31 03:47:14;;;;;;;14.05;10.48;;;;;;;12.45;100.00;101448.09;4952309;28;20308;-54
2022/10/31 03:49:41;;;;;;;14.55;10.20;;;;;;;12.46;100.00;101454.25;4959729;28;20265;-54
2022/10/31 03:52:17;;;;;;;14.68;11.13;;;;;;;12.46;100.00;101457.78;4964189;28;21395;-53
2022/10/31 03:54:45;;;;;;;12.65;10.45;;;;;;;12.50;100.00;101453.41;4965378;28;20239;-54
2022/10/31 03:57:17;;;;;;;9.95;8.50;;;;;;;12.52;100.00;101462.16;4961580;28;20237;-54
2022/10/31 03:59:45;;;;;;;11.77;9.55;;;;;;;12.51;100.00;101461.28;4963472;28;20422;-53
2022/10/31 04:02:14;;;;;;;16.38;10.45;;;;;;;12.56;100.00;101463.94;4963478;28;20238;-53
2022/10/31 04:04:41;;;;;;;11.45;10.23;;;;;;;12.55;100.00;101462.19;4960718;28;20337;-53
2022/10/31 04:07:10;;;;;;;12.60;9.70;;;;;;;12.50;100.00;101466.56;4958540;28;20246;-54
2022/10/31 04:09:39;;;;;;;11.30;9.32;;;;;;;12.51;100.00;101465.69;4955477;28;20266;-53
2022/10/31 04:12:08;;;;;;;13.50;9.73;;;;;;;12.47;100.00;101461.28;4964660;28;20330;-53
2022/10/31 04:14:38;;;;;;;11.38;8.95;;;;;;;12.44;100.00;101467.41;4959231;28;20231;-54
2022/10/31 04:17:10;;;;;;;13.65;10.32;;;;;;;12.41;100.00;101473.53;4961021;28;20238;-53
2022/10/31 04:19:37;;;;;;;12.82;9.45;;;;;;;12.40;100.00;101473.56;4961761;28;20313;-53
2022/10/31 04:22:04;;;;;;;14.00;9.88;;;;;;;12.39;100.00;101471.81;4964629;28;20640;-54
2022/10/31 04:24:32;;;;;;;11.90;10.13;;;;;;;12.39;100.00;101474.44;4963919;28;20261;-54
2022/10/31 04:26:59;;;;;;;11.52;10.32;;;;;;;12.49;100.00;101472.69;4957039;28;20227;-53
2022/10/31 04:29:26;;;;;;;13.73;9.45;;;;;;;12.43;100.00;101478.84;4953178;28;20235;-54
2022/10/31 04:31:53;;;;;;;11.95;9.40;;;;;;;12.41;100.00;101475.31;4964439;28;20231;-53
2022/10/31 04:34:20;;;;;;;12.13;10.10;;;;;;;12.43;100.00;101483.22;4951827;28;20239;-56
2022/10/31 04:36:47;;;;;;;13.23;10.43;;;;;;;12.41;100.00;101470.91;4962482;28;22619;-53
2022/10/31 04:39:14;;;;;;;12.13;10.27;;;;;;;12.43;100.00;101488.50;4959347;28;20312;-53
2022/10/31 04:41:42;;;;;;;12.25;11.02;;;;;;;12.42;100.00;101482.31;4964704;28;20338;-55
2022/10/31 04:44:09;;;;;;;11.20;9.77;;;;;;;12.41;100.00;101484.06;4967668;28;20727;-53
2022/10/31 04:46:36;;;;;;;12.95;10.40;;;;;;;12.40;100.00;101482.31;4962795;28;20239;-53
2022/10/31 04:49:02;;;;;;;12.98;10.20;;;;;;;12.39;100.00;101488.47;4967576;28;20234;-54
2022/10/31 04:51:29;;;;;;;16.33;11.18;;;;;;;12.36;100.00;101485.84;4964602;28;20238;-53
2022/10/31 04:53:56;;;;;;;12.02;9.23;;;;;;;12.35;100.00;101481.41;4968143;28;20242;-54
2022/10/31 04:56:23;;;;;;;12.55;10.07;;;;;;;12.35;100.00;101486.69;4964826;28;20296;-53
2022/10/31 04:58:51;;;;;;;11.40;10.10;;;;;;;12.35;100.00;101484.06;4960764;28;20243;-53
2022/10/31 05:01:18;;;;;;;12.80;10.85;;;;;;;12.29;100.00;101486.69;4972073;28;20242;-54
2022/10/31 05:03:45;;;;;;;11.38;10.25;;;;;;;12.27;100.00;101490.16;4966018;28;20238;-52
2022/10/31 05:06:11;;;;;;;12.82;10.05;;;;;;;12.32;100.00;101488.44;4969569;28;20235;-53
2022/10/31 05:08:38;;;;;;;11.20;9.88;;;;;;;12.32;100.00;101494.59;4961622;28;20246;-54
2022/10/31 05:11:06;;;;;;;14.55;10.65;;;;;;;12.30;100.00;101488.44;4966573;28;20234;-54
2022/10/31 05:13:33;;;;;;;19.08;10.93;;;;;;;12.29;100.00;101491.94;4962834;28;20291;-53
2022/10/31 05:16:01;;;;;;;14.88;10.93;;;;;;;12.30;100.00;101492.81;4965842;28;20231;-54
2022/10/31 05:18:28;;;;;;;16.67;10.50;;;;;;;12.29;100.00;101491.94;4964386;28;20238;-54
2022/10/31 05:20:55;;;;;;;13.07;9.82;;;;;;;12.27;100.00;101496.31;4967886;28;20253;-54
2022/10/31 05:23:21;;;;;;;10.57;8.88;;;;;;;12.26;100.00;101496.31;4965531;28;20244;-53
2022/10/31 05:25:50;;;;;;;14.50;10.45;;;;;;;12.24;100.00;101493.66;4958919;28;20235;-53
2022/10/31 05:28:17;;;;;;;13.00;9.75;;;;;;;12.23;100.00;101499.81;4965300;28;20234;-53
2022/10/31 05:30:43;;;;;;;12.60;9.63;;;;;;;12.22;100.00;101495.44;4967792;28;20242;-54
2022/10/31 05:33:12;;;;;;;15.60;11.70;;;;;;;12.20;100.00;101501.56;4966286;28;20231;-53
2022/10/31 05:35:39;;;;;;;15.27;9.77;;;;;;;12.18;100.00;101498.94;4968180;28;20243;-53
2022/10/31 05:38:05;;;;;;;14.60;9.63;;;;;;;12.20;100.00;101504.19;4962595;28;20764;-52
2022/10/31 05:40:32;;;;;;;13.57;9.88;;;;;;;12.21;100.00;101508.56;4967117;28;20304;-53
2022/10/31 05:42:59;;;;;;;15.23;10.25;;;;;;;12.21;100.00;101508.56;4963304;28;20361;-54
2022/10/31 05:45:26;;;;;;;9.85;8.85;;;;;;;12.22;100.00;101505.09;4963532;28;20301;-54
2022/10/31 05:47:53;;;;;;;13.38;10.02;;;;;;;12.21;100.00;101505.94;4966210;28;20273;-53
2022/10/31 05:50:22;;;;;;;12.38;10.40;;;;;;;12.21;100.00;101504.19;4966694;28;20234;-55
2022/10/31 05:52:54;;;;;;;14.80;9.77;;;;;;;12.20;100.00;101507.69;4957348;28;20238;-54
2022/10/31 05:55:21;;;;;;;11.02;9.90;;;;;;;12.20;100.00;101510.31;4964713;28;20235;-54
2022/10/31 05:57:48;;;;;;;10.98;9.85;;;;;;;12.22;100.00;101510.34;4958769;28;20230;-54
2022/10/31 06:00:15;;;;;;;16.17;11.40;;;;;;;12.21;100.00;101519.97;4966823;28;20230;-54
2022/10/31 06:02:42;;;;;;;15.30;10.88;;;;;;;12.23;100.00;101518.25;4960812;28;20257;-54
2022/10/31 06:05:09;;;;;;;11.50;9.88;;;;;;;12.22;100.00;101511.22;4954450;28;20250;-54
2022/10/31 06:07:37;;;;;;;16.08;10.15;;;;;;;12.24;100.00;101519.13;4961707;28;20551;-54
2022/10/31 06:10:06;;;;;;;12.40;9.90;;;;;;;12.24;100.00;101517.38;4951436;28;20250;-54
2022/10/31 06:12:37;;;;;;;14.38;11.02;;;;;;;12.23;100.00;101520.00;4966767;28;20245;-55
2022/10/31 06:15:05;;;;;;;13.35;10.52;;;;;;;12.24;100.00;101525.25;4959574;28;20330;-53
2022/10/31 06:17:32;;;;;;;13.15;11.40;;;;;;;12.24;100.00;101521.75;4949164;28;20242;-53
2022/10/31 06:19:58;;;;;;;12.98;10.23;;;;;;;12.24;100.00;101527.88;4963063;28;20258;-53
2022/10/31 06:22:25;;;;;;;14.68;10.60;;;;;;;12.24;100.00;101530.53;4963842;28;20637;-53
2022/10/31 06:24:53;;;;;;;17.08;10.35;;;;;;;12.24;100.00;101530.53;4960504;28;20226;-53
2022/10/31 06:27:20;;;;;;;18.90;11.05;;;;;;;12.25;100.00;101527.03;4960833;28;20241;-53
2022/10/31 06:29:47;;;;;;;13.80;10.80;;;;;;;12.26;100.00;101534.06;4960056;28;20234;-55
2022/10/31 06:32:14;;;;;;;13.68;11.15;;;;;;;12.26;100.00;101541.09;4956400;28;20222;-53
2022/10/31 06:34:42;;;;;;;15.55;10.80;;;;;;;12.26;100.00;101533.19;4962184;28;20235;-55
2022/10/31 06:37:09;;;;;;;15.48;11.65;;;;;;;12.26;100.00;101541.97;4959312;28;21042;-53
2022/10/31 06:42:25;;;;;;;15.52;11.00;;;;;;;12.31;100.00;101536.72;4956967;28;20231;-54
2022/10/31 06:44:52;;;;;;;13.48;11.20;;;;;;;12.33;100.00;101538.47;4966936;28;20897;-54
2022/10/31 06:47:19;;;;;;;19.02;11.00;;;;;;;12.33;100.00;101546.38;4962593;28;20613;-54
2022/10/31 06:49:46;;;;;;;16.88;11.00;;;;;;;12.33;100.00;101551.66;4965748;28;20242;-54
2022/10/31 06:52:12;;;;;;;15.52;11.27;;;;;;;12.34;100.00;101553.41;4961650;28;20227;-53
2022/10/31 06:54:39;;;;;;;15.32;11.65;;;;;;;12.39;100.00;101562.22;4948485;28;20238;-54
2022/10/31 07:00:30;;;;;;;15.38;11.15;;;;;;;12.45;100.00;101561.34;4970656;28;20321;-53
2022/10/31 07:02:58;;;;;;;13.57;11.07;;;;;;;12.50;100.00;101569.28;4964910;28;20788;-53
2022/10/31 07:05:25;;;;;;;14.73;10.90;;;;;;;12.51;100.00;101566.66;4967057;28;20704;-54
2022/10/31 07:07:55;;;;;;;14.52;10.98;;;;;;;12.57;100.00;101564.06;4967467;28;20235;-54
2022/10/31 07:10:22;;;;;;;13.43;10.60;;;;;;;12.64;100.00;101568.47;4965442;28;20782;-54
2022/10/31 07:12:49;;;;;;;17.30;10.95;;;;;;;12.73;100.00;101574.63;4966897;28;20261;-54
2022/10/31 07:15:16;;;;;;;12.82;11.40;;;;;;;12.83;100.00;101574.66;4967802;28;20462;-54
2022/10/31 07:17:44;;;;;;;20.77;11.85;;;;;;;12.95;100.00;101575.56;4966250;28;20883;-54
2022/10/31 07:20:11;;;;;;;12.88;10.63;;;;;;;13.01;100.00;101579.13;4977788;28;20241;-54
2022/10/31 07:22:38;;;;;;;14.13;11.32;;;;;;;13.11;100.00;101574.75;4965739;28;20239;-52
2022/10/31 07:28:36;;;;;;;14.45;11.50;;;;;;;13.39;100.00;101575.69;4961669;28;20314;-54
2022/10/31 07:41:10;;;;;;;17.10;12.90;;;;;;;13.62;100.00;101573.09;4965047;28;20673;-54
2022/10/31 07:43:36;;;;;;;17.83;13.65;;;;;;;13.72;100.00;101585.38;4964037;28;20314;-54
2022/10/31 07:46:03;;;;;;;14.65;12.88;;;;;;;13.71;100.00;101588.91;4965002;28;20329;-53
2022/10/31 07:48:56;;;;;;;15.73;13.95;;;;;;;13.73;100.00;101596.84;4959627;28;20736;-53
2022/10/31 08:01:29;;;;;;;19.63;15.23;;;;;;;13.67;100.00;101612.66;4902923;29;20443;-53
2022/10/31 08:21:06;;;;;;;20.15;14.57;;;;;;;13.58;100.00;101621.44;4960263;28;20288;-55
2022/10/31 08:37:36;;;;;;;24.25;17.92;;;;;;;13.44;100.00;101623.19;4963755;28;20334;-55
2022/10/31 08:40:25;;;;;;;19.02;15.35;;;;;;;13.49;100.00;101629.34;4963725;28;20258;-53
2022/10/31 08:43:18;;;;;;;19.42;15.63;;;;;;;13.58;100.00;101618.78;4962820;28;20531;-54
2022/10/31 08:46:21;;;;;;;21.38;16.33;;;;;;;13.69;100.00;101619.72;4959374;28;20230;-55
2022/10/31 09:09:25;;;;;;;21.13;16.67;;;;;;;14.29;100.00;101631.09;4960368;28;20263;-53
2022/10/31 09:12:27;;;;;;;19.95;16.15;;;;;;;14.38;100.00;101630.19;4963553;28;20289;-53
2022/10/31 09:18:44;;;;;;;22.63;15.80;;;;;;;14.60;100.00;101641.63;4964743;28;20229;-54
2022/10/31 09:21:11;;;;;;;27.90;15.75;;;;;;;14.51;100.00;101637.25;4963610;28;20774;-54
2022/10/31 09:23:38;;;;;;;23.25;17.17;;;;;;;14.47;100.00;101639.88;4964535;28;20301;-53
2022/10/31 09:26:06;;;;;;;23.42;18.45;;;;;;;14.50;100.00;101643.41;4952815;28;20622;-53
2022/10/31 09:28:33;;;;;;;25.48;17.58;;;;;;;14.48;100.00;101636.34;4966205;28;20261;-54
2022/10/31 09:31:01;;;;;;;25.25;17.98;;;;;;;14.50;100.00;101647.81;4967268;28;20266;-53
2022/10/31 09:33:28;;;;;;;24.13;18.17;;;;;;;14.49;100.00;101638.97;4968032;28;20313;-54
2022/10/31 09:36:06;;;;;;;22.67;18.40;;;;;;;14.52;100.00;101640.75;4967572;28;20736;-54
2022/10/31 09:38:33;;;;;;;23.38;17.58;;;;;;;14.55;100.00;101653.97;4967174;28;20345;-54
2022/10/31 09:41:14;;;;;;;24.05;17.52;;;;;;;14.59;100.00;101652.19;4966466;28;20305;-52
2022/10/31 09:53:50;;;;;;;18.42;16.50;;;;;;;14.82;100.00;101655.66;4966613;28;20233;-53
2022/10/31 09:56:20;;;;;;;21.63;16.77;;;;;;;14.93;100.00;101658.25;4968307;28;20672;-54
2022/10/31 09:58:48;;;;;;;20.23;16.92;;;;;;;15.04;100.00;101659.06;4967995;28;20725;-55
2022/10/31 10:01:34;;;;;;;19.83;16.10;;;;;;;15.16;100.00;101661.69;4963887;28;20239;-53
2022/10/31 10:04:04;;;;;;;21.75;16.73;;;;;;;15.26;100.00;101655.41;4961332;28;20238;-53
2022/10/31 10:06:34;;;;;;;26.83;19.08;;;;;;;15.31;100.00;101657.19;4966350;28;20231;-54
2022/10/31 10:09:01;;;;;;;20.42;17.00;;;;;;;15.35;100.00;101653.63;4964540;28;20260;-53
2022/10/31 10:11:48;;;;;;;23.95;18.02;;;;;;;15.41;100.00;101648.28;4971444;28;20742;-52
2022/10/31 10:14:28;;;;;;;25.00;16.08;;;;;;;15.47;100.00;101648.25;4964458;28;20689;-53
2022/10/31 10:17:17;;;;;;;23.20;17.73;;;;;;;15.54;100.00;101649.97;4965947;28;20684;-52
2022/10/31 10:20:01;;;;;;;25.63;17.95;;;;;;;15.61;100.00;101646.38;4966151;28;20318;-54
2022/10/31 10:22:33;;;;;;;25.25;18.27;;;;;;;15.67;100.00;101646.38;4971239;28;20258;-53
2022/10/31 10:25:13;;;;;;;25.58;20.25;;;;;;;15.58;100.00;101641.09;4972710;28;20720;-53
2022/10/31 10:27:49;;;;;;;23.98;17.23;;;;;;;15.74;100.00;101639.28;4965562;28;20704;-54
2022/10/31 10:30:18;;;;;;;23.42;17.42;;;;;;;15.85;100.00;101637.41;4965310;28;20242;-53
2022/10/31 10:32:46;;;;;;;26.33;19.08;;;;;;;15.91;100.00;101632.06;4965053;28;20257;-53
2022/10/31 10:35:21;;;;;;;24.30;18.30;;;;;;;15.97;100.00;101632.03;4966082;28;20246;-53
2022/10/31 10:37:50;;;;;;;20.83;17.50;;;;;;;15.93;100.00;101629.41;4965403;28;20248;-54
2022/10/31 10:40:19;;;;;;;25.67;18.77;;;;;;;15.95;100.00;101631.16;4965068;28;20342;-53
2022/10/31 10:48:32;;;;;;;21.02;15.85;;;;;;;16.11;100.00;101631.91;4965254;28;20238;-53
2022/10/31 10:50:59;;;;;;;20.30;15.40;;;;;;;16.16;100.00;101624.78;4958773;28;20253;-53
2022/10/31 10:53:48;;;;;;;26.60;17.58;;;;;;;16.24;100.00;101627.34;4966276;28;20254;-53
2022/10/31 11:10:26;;;;;;;22.70;17.00;;;;;;;16.53;100.00;101629.69;4903995;29;20248;-53
2022/10/31 11:13:15;;;;;;;25.38;18.33;;;;;;;16.53;100.00;101619.09;4923146;28;20241;-53
2022/10/31 11:15:52;;;;;;;25.60;18.08;;;;;;;16.54;100.00;101615.53;4964906;28;20245;-53
2022/10/31 11:18:23;;;;;;;20.50;15.90;;;;;;;16.60;100.00;101615.47;4964895;28;20230;-55
2022/10/31 11:20:52;;;;;;;19.58;15.82;;;;;;;16.63;100.00;101610.09;4964415;28;20239;-53
2022/10/31 11:23:20;;;;;;;31.10;22.10;;;;;;;16.67;100.00;101617.16;4964859;28;20314;-53
2022/10/31 11:25:58;;;;;;;25.95;19.95;;;;;;;16.76;100.00;101615.31;4963465;28;20235;-55
2022/10/31 11:28:29;;;;;;;23.48;17.73;;;;;;;16.78;100.00;101608.19;4962646;28;20305;-53
2022/10/31 11:30:57;;;;;;;22.83;17.95;;;;;;;16.88;100.00;101609.84;4963025;28;20231;-54
2022/10/31 11:33:27;;;;;;;25.25;18.80;;;;;;;16.94;100.00;101613.28;4961435;28;20231;-54
2022/10/31 11:35:55;;;;;;;25.83;18.25;;;;;;;16.96;100.00;101612.41;4961867;28;20242;-55
2022/10/31 11:38:24;;;;;;;22.45;16.77;;;;;;;17.00;100.00;101608.81;4963383;28;20301;-54
2022/10/31 11:41:00;;;;;;;30.48;19.08;;;;;;;17.04;100.00;101602.56;4963925;28;20718;-53
2022/10/31 11:43:28;;;;;;;23.90;18.50;;;;;;;17.07;100.00;101606.06;4962224;28;20764;-54
2022/10/31 11:45:55;;;;;;;19.92;17.05;;;;;;;17.09;100.00;101609.56;4967497;28;20699;-53
2022/10/31 11:48:24;;;;;;;24.52;19.85;;;;;;;17.14;100.00;101617.47;4964068;28;20309;-53
2022/10/31 11:50:52;;;;;;;26.55;21.08;;;;;;;17.26;100.00;101611.97;4959427;28;20246;-53
2022/10/31 11:53:21;;;;;;;23.15;18.45;;;;;;;17.25;100.00;101609.34;4960233;28;20241;-54
2022/10/31 11:55:48;;;;;;;31.08;21.58;;;;;;;17.22;100.00;101609.38;4964452;28;20234;-55
2022/10/31 11:58:22;;;;;;;29.50;21.63;;;;;;;17.10;100.00;101607.78;4963249;28;20234;-53
2022/10/31 12:00:53;;;;;;;19.17;16.15;;;;;;;17.12;100.00;101598.88;4963519;28;20300;-55
2022/10/31 12:03:29;;;;;;;24.45;19.67;;;;;;;17.15;100.00;101592.66;4962818;28;20322;-53
2022/10/31 12:06:02;;;;;;;25.73;19.65;;;;;;;17.16;100.00;101600.63;4969096;28;20237;-53
2022/10/31 12:08:31;;;;;;;26.20;20.10;;;;;;;17.21;100.00;101597.03;4961919;28;20235;-53
2022/10/31 12:11:02;;;;;;;31.30;20.90;;;;;;;17.21;100.00;101594.38;4962516;28;20331;-53
2022/10/31 12:13:34;;;;;;;27.02;20.20;;;;;;;17.32;100.00;101592.44;4964611;28;20317;-53
2022/10/31 12:16:09;;;;;;;20.75;16.05;;;;;;;17.28;100.00;101588.94;4962404;28;20238;-54
2022/10/31 12:18:50;;;;;;;24.08;17.17;;;;;;;17.34;100.00;101594.16;4963551;28;20776;-54
2022/10/31 12:21:25;;;;;;;19.60;17.45;;;;;;;17.29;100.00;101590.69;4958872;28;20234;-54
2022/10/31 12:24:00;;;;;;;29.48;19.77;;;;;;;17.31;100.00;101588.03;4962016;28;20285;-54
2022/10/31 12:26:33;;;;;;;25.48;18.95;;;;;;;17.34;100.00;101582.66;4962386;28;20403;-54
2022/10/31 12:29:20;;;;;;;23.13;17.00;;;;;;;17.33;100.00;101581.78;4961995;28;20246;-53
2022/10/31 12:31:56;;;;;;;23.75;17.00;;;;;;;17.36;100.00;101570.25;4959175;28;20235;-53
2022/10/31 12:34:50;;;;;;;32.63;20.77;;;;;;;17.32;100.00;101579.16;4964401;28;20409;-53
2022/10/31 12:37:31;;;;;;;22.50;16.95;;;;;;;17.29;100.00;101571.22;4961263;28;20249;-54
2022/10/31 12:40:09;;;;;;;23.75;17.40;;;;;;;17.32;100.00;101576.50;4967275;28;20615;-55
2022/10/31 12:42:50;;;;;;;27.67;19.73;;;;;;;17.29;100.00;101579.19;4961963;28;20231;-54
2022/10/31 12:45:30;;;;;;;26.17;18.88;;;;;;;17.25;100.00;101572.19;4977956;28;20238;-53
2022/10/31 12:48:11;;;;;;;24.58;18.50;;;;;;;17.26;100.00;101569.50;4963862;28;20238;-54
2022/10/31 12:50:52;;;;;;;25.65;18.00;;;;;;;17.32;100.00;101563.22;4958916;28;20231;-53
2022/10/31 12:53:32;;;;;;;16.65;14.68;;;;;;;17.36;100.00;101567.59;4961489;28;20238;-54
2022/10/31 12:56:10;;;;;;;24.02;17.33;;;;;;;17.40;100.00;101562.19;4960915;28;20260;-52
2022/10/31 12:58:41;;;;;;;21.48;16.33;;;;;;;17.42;100.00;101572.81;4961854;28;20261;-54
2022/10/31 13:01:12;;;;;;;27.35;20.02;;;;;;;17.43;100.00;101553.31;4963953;28;21003;-54
2022/10/31 13:03:46;;;;;;;19.10;14.98;;;;;;;17.41;100.00;101553.34;4970653;28;20234;-54
2022/10/31 13:06:17;;;;;;;20.67;16.35;;;;;;;17.38;100.00;101557.84;4964602;28;20246;-54
2022/10/31 13:08:46;;;;;;;22.20;17.60;;;;;;;17.39;100.00;101564.88;4961259;28;20282;-54
2022/10/31 13:11:18;;;;;;;28.73;21.88;;;;;;;17.45;100.00;101555.97;4967170;28;20325;-53
2022/10/31 13:13:48;;;;;;;26.95;19.80;;;;;;;17.43;100.00;101550.66;4967485;28;20612;-53